Time;durP1;ratioP1;P1;durP2;ratioP2;P2;SDS_P1;SDS_P2;PMS_P1;PMS_P2;Temp;Humidity;BMP_temperature;BMP_pressure;BME280_temperature;BME280_humidity;BME280_pressure;Samples;Min_cycle;Max_cycle;Signal;HPM_P1;HPM_P2
2022/06/27 00:02:12;;;;;;;7.23;3.03;;;19.70;99.90;;;;;;5060700;28;20467;-77
2022/06/27 00:04:58;;;;;;;4.67;3.40;;;19.70;99.90;;;;;;5055651;28;20466;-77
2022/06/27 00:07:44;;;;;;;8.33;3.30;;;19.70;99.90;;;;;;5053676;28;20806;-76
2022/06/27 00:10:30;;;;;;;8.33;3.73;;;19.70;99.90;;;;;;5060410;28;21058;-77
2022/06/27 00:13:17;;;;;;;8.73;3.33;;;19.70;99.90;;;;;;5051947;28;21086;-77
2022/06/27 00:16:03;;;;;;;9.80;3.67;;;19.70;99.90;;;;;;5056752;28;20513;-76
2022/06/27 00:18:49;;;;;;;7.63;3.80;;;19.70;99.90;;;;;;5057275;28;20527;-77
2022/06/27 00:21:34;;;;;;;8.27;3.30;;;19.70;99.90;;;;;;5057041;28;20470;-77
2022/06/27 00:24:20;;;;;;;7.80;3.83;;;19.70;99.90;;;;;;5054332;28;20527;-76
2022/06/27 00:27:06;;;;;;;8.13;4.40;;;19.60;99.90;;;;;;5051278;28;20444;-77
2022/06/27 00:29:53;;;;;;;9.10;3.70;;;19.60;99.90;;;;;;5058147;28;20494;-77
2022/06/27 00:32:39;;;;;;;6.17;3.60;;;19.60;99.90;;;;;;5055970;28;20458;-76
2022/06/27 00:35:25;;;;;;;9.93;4.33;;;19.60;99.90;;;;;;5053149;28;20505;-76
2022/06/27 00:38:11;;;;;;;9.57;4.60;;;19.50;99.90;;;;;;5053413;28;20474;-77
2022/06/27 00:40:57;;;;;;;6.60;3.90;;;19.60;99.90;;;;;;5058353;28;20467;-77
2022/06/27 00:43:43;;;;;;;5.40;4.00;;;19.40;99.90;;;;;;5055406;28;20459;-77
2022/06/27 00:46:31;;;;;;;5.90;3.50;;;19.50;99.90;;;;;;5052166;28;20458;-77
2022/06/27 00:49:16;;;;;;;6.60;3.80;;;19.60;99.90;;;;;;5054100;28;20423;-77
2022/06/27 00:52:05;;;;;;;5.07;3.43;;;19.70;99.90;;;;;;5058689;28;20475;-76
2022/06/27 00:54:51;;;;;;;7.47;3.83;;;19.70;99.90;;;;;;5048751;28;20436;-77
2022/06/27 00:57:37;;;;;;;7.17;3.67;;;19.80;99.90;;;;;;5053097;28;20567;-77
2022/06/27 01:00:22;;;;;;;6.03;3.63;;;19.80;99.90;;;;;;5053505;28;20600;-77
2022/06/27 01:03:09;;;;;;;7.07;3.30;;;19.80;99.90;;;;;;5055550;28;20538;-77
2022/06/27 01:05:56;;;;;;;7.87;3.83;;;19.90;99.90;;;;;;5048667;28;20597;-77
2022/06/27 01:08:42;;;;;;;6.90;3.97;;;20.00;99.90;;;;;;5054864;28;20439;-76
2022/06/27 01:11:29;;;;;;;4.67;3.57;;;20.00;99.90;;;;;;5051931;28;20893;-74
2022/06/27 01:14:15;;;;;;;6.20;4.03;;;19.80;99.90;;;;;;5053715;28;20443;-75
2022/06/27 01:17:01;;;;;;;5.50;3.30;;;19.70;99.90;;;;;;5050105;28;20549;-75
2022/06/27 01:19:48;;;;;;;7.30;4.43;;;19.70;99.90;;;;;;5053493;28;20590;-75
2022/06/27 01:22:35;;;;;;;8.00;4.00;;;19.80;99.90;;;;;;5054224;28;20447;-75
2022/06/27 01:25:22;;;;;;;5.80;4.00;;;19.80;99.90;;;;;;5049649;28;20468;-76
2022/06/27 01:28:09;;;;;;;7.90;4.20;;;19.80;99.90;;;;;;5053908;28;20806;-75
2022/06/27 01:30:54;;;;;;;5.67;3.90;;;19.80;99.90;;;;;;5054367;28;20463;-75
2022/06/27 01:33:40;;;;;;;6.27;4.13;;;19.80;99.90;;;;;;5052369;28;20447;-75
2022/06/27 01:36:45;;;;;;;6.17;3.80;;;19.70;99.90;;;;;;5054066;28;20448;-75
2022/06/27 01:39:32;;;;;;;11.80;4.37;;;19.80;99.90;;;;;;5056472;28;20446;-75
2022/06/27 01:42:18;;;;;;;6.97;4.47;;;19.80;99.90;;;;;;5058206;28;20597;-77
2022/06/27 01:45:05;;;;;;;6.43;4.30;;;19.80;99.90;;;;;;5049937;28;20807;-76
2022/06/27 01:47:50;;;;;;;6.90;3.83;;;19.80;99.90;;;;;;5057673;28;20431;-75
2022/06/27 01:50:37;;;;;;;5.80;4.37;;;19.80;99.90;;;;;;5072803;28;20437;-74
2022/06/27 01:53:23;;;;;;;7.10;4.53;;;19.70;99.90;;;;;;5065615;28;20524;-76
2022/06/27 01:56:10;;;;;;;5.57;5.07;;;19.70;99.90;;;;;;5054493;28;20429;-76
2022/06/27 01:58:57;;;;;;;4.43;3.73;;;19.70;99.90;;;;;;5064421;28;20447;-76
2022/06/27 02:01:44;;;;;;;5.30;4.80;;;19.60;99.90;;;;;;5062809;28;20457;-75
2022/06/27 02:04:32;;;;;;;12.83;4.07;;;19.70;99.90;;;;;;5049258;28;20731;-74
2022/06/27 02:07:18;;;;;;;6.73;4.20;;;19.70;99.90;;;;;;5064424;28;20486;-76
2022/06/27 02:10:04;;;;;;;5.90;4.03;;;19.80;99.90;;;;;;5062747;28;20478;-76
2022/06/27 02:12:51;;;;;;;4.90;4.20;;;19.90;99.90;;;;;;5062934;28;20755;-76
2022/06/27 02:15:37;;;;;;;5.70;4.63;;;19.90;99.90;;;;;;5056266;28;20805;-75
2022/06/27 02:18:23;;;;;;;6.27;4.37;;;19.90;99.90;;;;;;5063875;28;20482;-76
2022/06/27 02:21:12;;;;;;;5.60;4.67;;;20.00;99.90;;;;;;5058068;28;20482;-76
2022/06/27 02:23:58;;;;;;;5.23;4.73;;;19.90;99.90;;;;;;5049707;28;20851;-76
2022/06/27 02:26:49;;;;;;;5.37;4.87;;;19.80;99.90;;;;;;5054361;28;20666;-76
2022/06/27 02:29:36;;;;;;;4.77;4.37;;;19.70;99.90;;;;;;5059441;28;20822;-75
2022/06/27 02:32:22;;;;;;;5.43;4.80;;;19.70;99.90;;;;;;5060092;28;20463;-75
2022/06/27 02:35:09;;;;;;;8.20;5.20;;;19.70;99.90;;;;;;5055140;28;20446;-76
2022/06/27 02:37:55;;;;;;;6.73;5.70;;;19.60;99.90;;;;;;5059407;28;20463;-75
2022/06/27 02:40:44;;;;;;;6.07;5.47;;;19.50;99.90;;;;;;5060932;28;20547;-76
2022/06/27 02:43:31;;;;;;;8.23;5.53;;;19.60;99.90;;;;;;5050946;28;20513;-75
2022/06/27 02:46:19;;;;;;;5.63;5.03;;;19.60;99.90;;;;;;5059036;28;20529;-73
2022/06/27 02:49:05;;;;;;;7.33;5.87;;;19.60;99.90;;;;;;5063891;28;20491;-75
2022/06/27 02:52:01;;;;;;;6.17;5.57;;;19.60;99.90;;;;;;5059037;28;20537;-75
2022/06/27 02:54:50;;;;;;;7.53;6.83;;;19.80;99.90;;;;;;5048815;28;20448;-75
2022/06/27 02:57:44;;;;;;;6.60;6.00;;;19.90;99.90;;;;;;5060150;28;20532;-75
2022/06/27 03:00:32;;;;;;;7.83;6.10;;;19.90;99.90;;;;;;5053923;28;20567;-75
2022/06/27 03:03:20;;;;;;;6.60;5.90;;;19.90;99.90;;;;;;5058228;28;20455;-76
2022/06/27 03:06:07;;;;;;;6.30;5.80;;;19.80;99.90;;;;;;5061070;28;20893;-75
2022/06/27 03:08:53;;;;;;;7.07;5.97;;;19.90;99.90;;;;;;5057046;28;21048;-76
2022/06/27 03:11:39;;;;;;;7.00;5.77;;;19.90;99.90;;;;;;5056885;28;20446;-76
2022/06/27 03:14:24;;;;;;;13.37;6.17;;;19.80;99.90;;;;;;5051468;28;20521;-75
2022/06/27 03:17:10;;;;;;;11.10;6.37;;;19.80;99.90;;;;;;5060081;28;21015;-76
2022/06/27 03:19:59;;;;;;;7.27;6.67;;;19.70;99.90;;;;;;5053846;28;20464;-76
2022/06/27 03:22:44;;;;;;;7.40;6.70;;;19.60;99.90;;;;;;5049632;28;20447;-75
2022/06/27 03:25:30;;;;;;;7.77;6.90;;;19.50;99.90;;;;;;5055812;28;20450;-75
2022/06/27 03:28:16;;;;;;;8.33;7.50;;;19.20;99.90;;;;;;5058268;28;20447;-76
2022/06/27 03:31:02;;;;;;;7.30;6.70;;;19.00;99.90;;;;;;5060267;28;20700;-76
2022/06/27 03:33:49;;;;;;;7.40;6.70;;;19.10;99.90;;;;;;5049119;28;20454;-76
2022/06/27 03:36:38;;;;;;;6.80;6.10;;;19.00;99.90;;;;;;5058290;28;20475;-75
2022/06/27 03:39:24;;;;;;;7.30;6.60;;;19.10;99.90;;;;;;5063368;28;20446;-76
2022/06/27 03:42:09;;;;;;;7.43;6.33;;;19.20;99.90;;;;;;5056410;28;20474;-76
2022/06/27 03:44:55;;;;;;;7.00;6.30;;;19.30;99.90;;;;;;5053740;28;20529;-75
2022/06/27 03:47:50;;;;;;;7.60;6.40;;;19.20;99.90;;;;;;5061324;28;20463;-75
2022/06/27 03:50:35;;;;;;;7.73;5.77;;;19.30;99.90;;;;;;5074203;28;20484;-76
2022/06/27 03:53:22;;;;;;;9.07;6.70;;;19.30;99.90;;;;;;5054173;28;20439;-75
2022/06/27 03:56:08;;;;;;;6.27;5.77;;;19.30;99.90;;;;;;5063565;28;20439;-75
2022/06/27 03:58:53;;;;;;;6.27;5.67;;;19.30;99.90;;;;;;5062512;28;20478;-76
2022/06/27 04:01:39;;;;;;;7.70;7.00;;;19.30;99.90;;;;;;5059431;28;21099;-75
2022/06/27 04:04:25;;;;;;;9.67;8.03;;;19.10;99.90;;;;;;5055255;28;20529;-76
2022/06/27 04:07:11;;;;;;;7.23;6.63;;;19.00;99.90;;;;;;5055743;28;20455;-76
2022/06/27 04:09:58;;;;;;;8.60;6.83;;;18.90;99.90;;;;;;5062030;28;20460;-76
2022/06/27 04:12:44;;;;;;;8.80;6.67;;;19.00;99.90;;;;;;5050409;28;20555;-75
2022/06/27 04:15:30;;;;;;;7.33;6.23;;;19.00;99.90;;;;;;5056613;28;20566;-75
2022/06/27 04:18:16;;;;;;;11.63;6.97;;;19.00;99.90;;;;;;5058017;28;20453;-76
2022/06/27 04:21:02;;;;;;;6.80;6.03;;;18.90;99.90;;;;;;5057729;28;20628;-76
2022/06/27 04:23:48;;;;;;;7.47;6.87;;;19.00;99.90;;;;;;5047670;28;20455;-75
2022/06/27 04:26:36;;;;;;;8.17;7.40;;;19.00;99.90;;;;;;5056897;28;20818;-75
2022/06/27 04:29:22;;;;;;;12.00;8.50;;;19.00;99.90;;;;;;5052164;28;20482;-76
2022/06/27 04:32:08;;;;;;;13.07;10.27;;;19.10;99.90;;;;;;5051192;28;20848;-76
2022/06/27 04:34:54;;;;;;;10.63;9.63;;;19.10;99.90;;;;;;5057440;28;20443;-75
2022/06/27 04:37:42;;;;;;;11.17;10.07;;;19.20;99.90;;;;;;5057713;28;20483;-76
2022/06/27 04:40:28;;;;;;;13.10;9.57;;;19.00;99.90;;;;;;5056359;28;20458;-75
2022/06/27 04:43:15;;;;;;;14.43;10.10;;;18.90;99.90;;;;;;5044724;28;20440;-76
2022/06/27 04:46:02;;;;;;;10.40;9.50;;;18.90;99.90;;;;;;5060267;28;20498;-75
2022/06/27 04:48:48;;;;;;;11.23;9.40;;;19.00;99.90;;;;;;5052513;28;20439;-78
2022/06/27 04:51:34;;;;;;;10.63;9.53;;;19.10;99.90;;;;;;5048125;28;20476;-75
2022/06/27 04:54:22;;;;;;;9.50;8.60;;;19.10;99.90;;;;;;5054596;28;20418;-74
2022/06/27 04:57:08;;;;;;;10.30;9.40;;;19.10;99.90;;;;;;5061913;28;20431;-76
2022/06/27 04:59:55;;;;;;;11.13;8.40;;;19.10;99.90;;;;;;5057666;28;20974;-76
2022/06/27 05:02:41;;;;;;;9.03;8.17;;;19.10;99.90;;;;;;5053250;28;20446;-75
2022/06/27 05:05:27;;;;;;;8.33;7.50;;;19.00;99.90;;;;;;5055720;28;20442;-76
2022/06/27 05:08:13;;;;;;;7.60;6.90;;;18.90;99.90;;;;;;5058075;28;20486;-76
2022/06/27 05:10:58;;;;;;;8.23;7.53;;;19.00;99.90;;;;;;5054951;28;21062;-76
2022/06/27 05:13:44;;;;;;;7.73;7.03;;;19.10;99.90;;;;;;5051228;28;20901;-75
2022/06/27 05:16:32;;;;;;;10.87;8.23;;;19.00;99.90;;;;;;5065892;28;20914;-75
2022/06/27 05:19:17;;;;;;;9.70;8.80;;;19.00;99.90;;;;;;5059355;28;20463;-75
2022/06/27 05:22:03;;;;;;;14.63;9.10;;;19.10;99.90;;;;;;5045589;28;20475;-75
2022/06/27 05:24:49;;;;;;;8.83;8.00;;;19.20;99.90;;;;;;5048591;28;20414;-75
2022/06/27 05:27:35;;;;;;;13.93;11.20;;;19.30;99.90;;;;;;5054643;28;20451;-74
2022/06/27 05:30:21;;;;;;;11.73;10.50;;;19.30;99.90;;;;;;5060838;28;20470;-75
2022/06/27 05:33:09;;;;;;;12.27;10.60;;;19.30;99.90;;;;;;5051104;28;20433;-75
2022/06/27 05:35:55;;;;;;;17.13;10.90;;;19.30;99.90;;;;;;5052521;28;20525;-75
2022/06/27 05:38:40;;;;;;;12.67;11.47;;;19.40;99.90;;;;;;5047364;28;20619;-75
2022/06/27 05:41:26;;;;;;;13.83;12.53;;;19.40;99.90;;;;;;5044302;28;20607;-75
2022/06/27 05:44:13;;;;;;;12.63;11.50;;;19.30;99.90;;;;;;5048564;28;20515;-75
2022/06/27 05:46:59;;;;;;;12.50;11.20;;;19.40;99.90;;;;;;5045818;28;20834;-74
2022/06/27 05:49:46;;;;;;;12.13;10.83;;;19.40;99.90;;;;;;5042800;28;20654;-75
2022/06/27 05:52:32;;;;;;;13.20;11.90;;;19.50;99.90;;;;;;5044729;28;20440;-75
2022/06/27 05:55:19;;;;;;;10.87;9.77;;;19.40;99.90;;;;;;5046002;28;20960;-75
2022/06/27 05:58:07;;;;;;;11.30;10.10;;;19.40;99.90;;;;;;5046316;28;20474;-75
2022/06/27 06:00:53;;;;;;;10.77;9.60;;;19.50;99.90;;;;;;5045198;28;20471;-75
2022/06/27 06:03:38;;;;;;;11.80;10.50;;;19.60;99.90;;;;;;5046094;28;20456;-74
2022/06/27 06:06:25;;;;;;;10.20;9.20;;;19.70;99.90;;;;;;5054415;28;21041;-75
2022/06/27 06:09:13;;;;;;;8.90;8.10;;;19.90;99.90;;;;;;5059132;28;20459;-75
2022/06/27 06:11:59;;;;;;;9.53;7.10;;;20.00;99.90;;;;;;5056717;28;20565;-75
2022/06/27 06:14:46;;;;;;;6.60;5.97;;;19.90;99.90;;;;;;5049098;28;20790;-74
2022/06/27 06:17:33;;;;;;;6.30;5.20;;;19.90;99.90;;;;;;5052426;28;20521;-75
2022/06/27 06:20:19;;;;;;;7.67;6.20;;;19.80;99.90;;;;;;5050918;28;20483;-75
2022/06/27 06:23:07;;;;;;;5.10;4.60;;;19.90;99.90;;;;;;5051264;28;20419;-75
2022/06/27 06:25:53;;;;;;;8.03;6.10;;;19.90;99.90;;;;;;5060064;28;20446;-75
2022/06/27 06:28:38;;;;;;;6.70;5.30;;;19.80;99.90;;;;;;5053116;28;20439;-75
2022/06/27 06:31:24;;;;;;;5.80;5.23;;;19.90;99.90;;;;;;5049589;28;20466;-75
2022/06/27 06:34:10;;;;;;;5.40;4.90;;;20.00;99.90;;;;;;5054758;28;20711;-75
2022/06/27 06:36:56;;;;;;;7.87;5.60;;;20.00;99.90;;;;;;5046984;28;20452;-75
2022/06/27 06:39:43;;;;;;;5.40;4.90;;;20.00;99.90;;;;;;5052146;28;20458;-75
2022/06/27 06:42:28;;;;;;;5.40;4.90;;;20.00;99.90;;;;;;5044778;28;20502;-75
2022/06/27 06:45:14;;;;;;;8.93;5.30;;;20.00;99.90;;;;;;5052610;28;20957;-75
2022/06/27 06:48:00;;;;;;;17.13;6.20;;;20.00;99.90;;;;;;5052853;28;20450;-76
2022/06/27 06:50:46;;;;;;;6.73;6.13;;;20.00;99.90;;;;;;5051517;28;20442;-75
2022/06/27 06:53:31;;;;;;;6.40;5.67;;;19.90;99.90;;;;;;5054712;28;20502;-75
2022/06/27 06:56:18;;;;;;;7.93;7.03;;;20.00;99.90;;;;;;5052939;28;20432;-75
2022/06/27 06:59:04;;;;;;;11.60;6.40;;;20.00;99.90;;;;;;5049157;28;20460;-75
2022/06/27 07:01:50;;;;;;;8.33;6.77;;;19.90;99.90;;;;;;5043306;28;20455;-75
2022/06/27 07:04:36;;;;;;;7.63;6.80;;;19.90;99.90;;;;;;5045362;28;20424;-75
2022/06/27 07:07:22;;;;;;;9.40;6.60;;;20.00;99.90;;;;;;5059077;28;20559;-75
2022/06/27 07:10:09;;;;;;;15.00;7.10;;;20.00;99.90;;;;;;5051356;28;20463;-75
2022/06/27 07:12:56;;;;;;;7.13;6.50;;;20.10;99.90;;;;;;5050511;28;20535;-75
2022/06/27 07:15:45;;;;;;;8.00;6.47;;;20.20;99.90;;;;;;5049868;28;20550;-75
2022/06/27 07:18:32;;;;;;;8.13;5.90;;;20.20;99.90;;;;;;5046008;28;20460;-75
2022/06/27 07:21:19;;;;;;;6.73;5.60;;;20.30;99.90;;;;;;5051252;28;20838;-75
2022/06/27 07:24:08;;;;;;;6.67;5.97;;;20.40;99.90;;;;;;5052571;28;20451;-76
2022/06/27 07:26:55;;;;;;;6.67;5.70;;;20.40;99.90;;;;;;5046551;28;20422;-75
2022/06/27 07:29:42;;;;;;;6.27;5.67;;;20.20;99.90;;;;;;5047546;28;20427;-75
2022/06/27 07:32:29;;;;;;;8.13;6.10;;;20.30;99.90;;;;;;5048249;28;20415;-75
2022/06/27 07:35:16;;;;;;;6.60;5.93;;;20.30;99.90;;;;;;5057663;28;20451;-75
2022/06/27 07:38:02;;;;;;;6.43;5.83;;;20.40;99.90;;;;;;5055520;28;20940;-75
2022/06/27 07:40:48;;;;;;;6.37;5.80;;;20.50;99.90;;;;;;5051291;28;20796;-75
2022/06/27 07:43:34;;;;;;;6.00;5.30;;;20.60;99.90;;;;;;5052217;28;20482;-75
2022/06/27 07:46:21;;;;;;;9.13;6.03;;;20.70;99.90;;;;;;5054436;28;20965;-75
2022/06/27 07:49:07;;;;;;;7.57;5.80;;;20.70;99.90;;;;;;5050055;28;20693;-75
2022/06/27 07:51:53;;;;;;;7.57;5.60;;;20.70;99.90;;;;;;5049982;28;20463;-74
2022/06/27 07:54:39;;;;;;;6.77;5.30;;;20.80;99.90;;;;;;5050498;28;20450;-75
2022/06/27 07:57:24;;;;;;;8.10;5.90;;;20.80;99.90;;;;;;5051340;28;20506;-75
2022/06/27 08:00:11;;;;;;;8.30;5.97;;;20.90;99.90;;;;;;5047527;28;20495;-75
2022/06/27 08:02:58;;;;;;;8.20;6.07;;;20.90;99.90;;;;;;5050321;28;20763;-75
2022/06/27 08:05:44;;;;;;;11.10;5.33;;;20.90;99.90;;;;;;5046381;28;20926;-75
2022/06/27 08:08:33;;;;;;;6.97;6.27;;;21.00;99.90;;;;;;5054631;28;20565;-76
2022/06/27 08:11:21;;;;;;;7.57;6.80;;;21.10;99.90;;;;;;5050702;28;20545;-75
2022/06/27 08:14:11;;;;;;;6.83;6.17;;;21.10;99.90;;;;;;5048964;28;20470;-75
2022/06/27 08:16:57;;;;;;;7.20;6.50;;;21.10;99.90;;;;;;5059162;28;20439;-75
2022/06/27 08:19:44;;;;;;;8.97;7.00;;;21.20;99.90;;;;;;5051033;28;20499;-75
2022/06/27 08:22:30;;;;;;;6.67;6.03;;;21.10;99.90;;;;;;5054843;28;20412;-75
2022/06/27 08:25:15;;;;;;;6.93;6.23;;;21.20;99.90;;;;;;5057469;28;20501;-75
2022/06/27 08:28:01;;;;;;;6.77;6.10;;;21.20;99.90;;;;;;5052755;28;20582;-75
2022/06/27 08:30:48;;;;;;;8.73;6.90;;;21.00;99.90;;;;;;5045979;28;20510;-75
2022/06/27 08:33:33;;;;;;;7.77;6.93;;;20.80;99.90;;;;;;5055657;28;20454;-75
2022/06/27 08:36:23;;;;;;;8.37;5.67;;;20.80;99.90;;;;;;5050360;28;20559;-75
2022/06/27 08:39:16;;;;;;;7.97;6.13;;;20.70;99.90;;;;;;5047933;28;20467;-75
2022/06/27 08:42:02;;;;;;;6.90;6.20;;;20.70;99.90;;;;;;5048605;28;20459;-75
2022/06/27 08:44:48;;;;;;;12.30;7.10;;;20.70;99.90;;;;;;5048046;28;20764;-75
2022/06/27 08:47:34;;;;;;;11.83;5.87;;;20.50;99.90;;;;;;5049003;28;20974;-75
2022/06/27 08:50:20;;;;;;;6.63;5.90;;;20.20;99.90;;;;;;5041951;28;20944;-75
2022/06/27 08:53:08;;;;;;;5.40;4.90;;;20.20;99.90;;;;;;5060122;28;20418;-76
2022/06/27 08:55:54;;;;;;;7.17;6.47;;;20.20;99.90;;;;;;5047615;28;20459;-75
2022/06/27 08:58:40;;;;;;;9.53;5.73;;;20.20;99.90;;;;;;5044665;28;20447;-75
2022/06/27 09:01:30;;;;;;;8.70;5.80;;;20.20;99.90;;;;;;5051418;28;20437;-75
2022/06/27 09:04:15;;;;;;;9.07;6.20;;;20.10;99.90;;;;;;5047074;28;20448;-75
2022/06/27 09:07:01;;;;;;;7.20;5.80;;;20.20;99.90;;;;;;5054147;28;20818;-75
2022/06/27 09:09:48;;;;;;;12.60;5.90;;;20.30;99.90;;;;;;5038813;28;20949;-75
2022/06/27 09:12:53;;;;;;;8.70;6.10;;;20.40;99.90;;;;;;5047213;28;20425;-75
2022/06/27 09:16:01;;;;;;;10.50;6.73;;;20.50;99.90;;;;;;5051404;28;20510;-75
2022/06/27 09:18:46;;;;;;;12.70;7.53;;;20.70;99.90;;;;;;5042337;28;20456;-76
2022/06/27 09:21:33;;;;;;;11.80;7.90;;;20.70;99.90;;;;;;5046413;28;20479;-75
2022/06/27 09:24:19;;;;;;;13.00;7.87;;;20.90;99.90;;;;;;5050935;28;20949;-75
2022/06/27 09:27:08;;;;;;;10.23;7.60;;;21.10;99.90;;;;;;5049313;28;20451;-75
2022/06/27 09:29:53;;;;;;;9.07;7.20;;;21.40;99.90;;;;;;5044801;28;20443;-75
2022/06/27 09:32:39;;;;;;;6.93;6.33;;;21.60;99.90;;;;;;5054837;28;20446;-75
2022/06/27 09:35:27;;;;;;;6.97;6.13;;;21.80;99.90;;;;;;5052789;28;20419;-75
2022/06/27 09:38:13;;;;;;;8.73;6.10;;;21.90;99.90;;;;;;5047005;28;20451;-75
2022/06/27 09:40:59;;;;;;;7.83;5.30;;;22.00;99.90;;;;;;5046698;28;20476;-75
2022/06/27 09:43:48;;;;;;;6.17;5.20;;;21.90;99.90;;;;;;5050414;28;20420;-75
2022/06/27 09:46:38;;;;;;;6.67;6.00;;;21.90;99.90;;;;;;5050194;28;20436;-75
2022/06/27 09:49:26;;;;;;;6.93;6.27;;;21.50;99.90;;;;;;5043310;28;20589;-75
2022/06/27 09:52:14;;;;;;;9.57;6.47;;;21.40;99.90;;;;;;5048806;28;20467;-75
2022/06/27 09:55:00;;;;;;;9.67;6.83;;;21.40;99.90;;;;;;5050948;28;20447;-75
2022/06/27 09:57:47;;;;;;;6.33;5.63;;;21.50;99.90;;;;;;5043151;28;20443;-75
2022/06/27 10:00:34;;;;;;;7.07;6.30;;;21.70;99.90;;;;;;5044461;28;20478;-75
2022/06/27 10:03:21;;;;;;;7.33;6.63;;;21.80;99.90;;;;;;5047262;28;20578;-74
2022/06/27 10:06:09;;;;;;;8.70;5.87;;;21.80;99.90;;;;;;5053678;28;20455;-74
2022/06/27 10:08:55;;;;;;;8.50;5.80;;;21.80;99.90;;;;;;5045531;28;20459;-73
2022/06/27 10:11:41;;;;;;;8.17;5.70;;;21.90;99.90;;;;;;5054822;28;20467;-74
2022/06/27 10:14:26;;;;;;;6.80;6.20;;;21.80;99.90;;;;;;5051858;28;20505;-74
2022/06/27 10:17:16;;;;;;;8.97;6.90;;;21.80;99.90;;;;;;5052690;28;20444;-74
2022/06/27 10:20:02;;;;;;;7.10;5.93;;;21.80;99.90;;;;;;5044785;28;20535;-74
2022/06/27 10:23:26;;;;;;;8.97;6.50;;;21.80;99.90;;;;;;5051484;28;20968;-73
2022/06/27 10:26:41;;;;;;;9.93;6.93;;;21.60;99.90;;;;;;5050796;28;20428;-73
2022/06/27 10:29:42;;;;;;;8.30;6.70;;;21.70;99.90;;;;;;5058162;28;20875;-73
2022/06/27 10:32:46;;;;;;;8.73;6.40;;;22.00;99.90;;;;;;5054691;28;20508;-73
2022/06/27 10:35:32;;;;;;;7.77;6.97;;;22.30;99.90;;;;;;5052500;28;20809;-73
2022/06/27 10:38:25;;;;;;;7.50;6.80;;;22.60;99.90;;;;;;5047348;28;20535;-73
2022/06/27 10:41:27;;;;;;;9.50;6.20;;;22.80;99.90;;;;;;5051525;28;20475;-73
2022/06/27 10:44:32;;;;;;;5.47;4.97;;;22.70;99.90;;;;;;5050460;28;20451;-73
2022/06/27 10:47:33;;;;;;;8.47;5.63;;;22.50;99.90;;;;;;5048800;28;20448;-73
2022/06/27 10:50:23;;;;;;;5.77;5.27;;;22.50;99.90;;;;;;5049210;28;20608;-73
2022/06/27 10:53:24;;;;;;;7.13;4.97;;;22.50;99.90;;;;;;5049686;28;20451;-73
2022/06/27 10:56:34;;;;;;;8.07;4.97;;;22.50;99.90;;;;;;5049485;28;20442;-73
2022/06/27 10:59:57;;;;;;;7.37;4.20;;;22.30;99.90;;;;;;5043114;28;20453;-73
2022/06/27 11:02:43;;;;;;;16.87;4.73;;;22.00;99.90;;;;;;5053278;28;20443;-73
2022/06/27 11:05:32;;;;;;;6.80;4.27;;;21.70;99.90;;;;;;5050149;28;20897;-74
2022/06/27 11:08:17;;;;;;;9.23;4.33;;;21.50;99.90;;;;;;5046396;28;20961;-74
2022/06/27 11:11:04;;;;;;;4.77;4.37;;;21.30;99.90;;;;;;5060640;28;20476;-74
2022/06/27 11:13:52;;;;;;;4.87;4.17;;;21.20;99.90;;;;;;5047381;28;20472;-74
2022/06/27 11:16:38;;;;;;;8.67;4.80;;;21.00;99.90;;;;;;5054095;28;20569;-74
2022/06/27 11:22:40;;;;;;;5.80;4.87;;;20.90;99.90;;;;;;4982846;28;20853;-74
2022/06/27 11:25:27;;;;;;;4.63;4.13;;;20.70;99.90;;;;;;5063194;28;20508;-73
2022/06/27 11:34:26;;;;;;;5.33;3.60;;;20.40;99.90;;;;;;5055636;28;20441;-74
2022/06/27 11:37:14;;;;;;;15.03;4.30;;;20.30;99.90;;;;;;5049962;28;20541;-73
2022/06/27 11:40:03;;;;;;;4.73;4.03;;;20.30;99.90;;;;;;5051381;28;20828;-73
2022/06/27 11:42:55;;;;;;;6.23;4.43;;;20.30;99.90;;;;;;5047824;28;20963;-74
2022/06/27 11:45:41;;;;;;;9.17;4.60;;;20.40;99.90;;;;;;5054667;28;20808;-74
2022/06/27 11:48:27;;;;;;;8.23;4.30;;;20.50;99.90;;;;;;5058698;28;20656;-74
2022/06/27 11:51:21;;;;;;;6.80;4.07;;;20.60;99.90;;;;;;5048395;28;20468;-73
2022/06/27 11:54:10;;;;;;;5.47;3.70;;;20.50;99.90;;;;;;5050250;28;20443;-74
2022/06/27 11:56:57;;;;;;;6.97;4.50;;;20.60;99.90;;;;;;5042918;28;20443;-74
2022/06/27 11:59:48;;;;;;;5.17;4.63;;;20.60;99.90;;;;;;5051063;28;20577;-74
2022/06/27 12:02:36;;;;;;;7.00;4.37;;;20.70;99.90;;;;;;5053267;28;20814;-74
2022/06/27 12:05:23;;;;;;;7.43;5.20;;;20.90;99.90;;;;;;5051184;28;20681;-73
2022/06/27 12:08:11;;;;;;;7.53;4.67;;;21.00;99.90;;;;;;5041714;28;20458;-74
2022/06/27 12:11:26;;;;;;;4.00;3.60;;;21.10;99.90;;;;;;5046052;28;20459;-74
2022/06/27 12:14:13;;;;;;;15.77;4.40;;;21.20;99.90;;;;;;5046031;28;20444;-74
2022/06/27 12:17:00;;;;;;;8.80;4.20;;;21.20;99.90;;;;;;5041436;28;20441;-74
2022/06/27 12:19:45;;;;;;;6.40;4.33;;;21.20;99.90;;;;;;5057167;28;21018;-74
2022/06/27 12:22:32;;;;;;;5.03;4.40;;;21.30;99.90;;;;;;5053094;28;20439;-74
2022/06/27 12:25:18;;;;;;;11.73;4.90;;;21.40;99.90;;;;;;5047091;28;20468;-74
2022/06/27 12:28:05;;;;;;;6.13;5.40;;;21.40;99.90;;;;;;5041252;28;20458;-74
2022/06/27 12:30:52;;;;;;;5.33;4.80;;;21.50;99.90;;;;;;5044716;28;20543;-74
2022/06/27 12:33:38;;;;;;;5.77;4.80;;;21.70;99.90;;;;;;5049166;28;20443;-74
2022/06/27 12:36:24;;;;;;;6.70;4.60;;;21.70;99.90;;;;;;5047083;28;21030;-74
2022/06/27 12:39:10;;;;;;;5.70;5.10;;;21.80;99.90;;;;;;5046587;28;20439;-74
2022/06/27 12:41:55;;;;;;;7.20;5.40;;;21.80;99.90;;;;;;5045003;28;20530;-73
2022/06/27 12:44:41;;;;;;;7.43;5.10;;;21.80;99.90;;;;;;5046133;28;20443;-73
2022/06/27 12:47:29;;;;;;;7.97;5.50;;;21.90;99.90;;;;;;5039819;28;20442;-74
2022/06/27 12:50:16;;;;;;;7.87;6.00;;;21.90;99.90;;;;;;5045226;28;20831;-74
2022/06/27 12:53:02;;;;;;;5.90;5.07;;;21.90;99.90;;;;;;5045857;28;20565;-74
2022/06/27 12:55:48;;;;;;;6.80;5.63;;;21.80;99.90;;;;;;5047244;28;20421;-74
2022/06/27 12:58:34;;;;;;;7.90;5.37;;;21.90;99.90;;;;;;5047014;28;20446;-74
2022/06/27 13:01:21;;;;;;;10.77;6.00;;;21.90;99.90;;;;;;5047112;28;20476;-75
2022/06/27 13:04:08;;;;;;;6.00;5.50;;;21.90;99.90;;;;;;5044635;28;20544;-74
2022/06/27 13:06:54;;;;;;;4.70;2.53;;;21.90;99.90;;;;;;5041191;28;20968;-73
2022/06/27 13:09:39;;;;;;;4.23;2.50;;;21.60;99.90;;;;;;5049942;28;20491;-74
2022/06/27 13:12:25;;;;;;;3.30;2.23;;;21.30;99.90;;;;;;5048834;28;20435;-74
2022/06/27 13:15:11;;;;;;;2.53;2.20;;;21.30;99.90;;;;;;5045116;28;20525;-74
2022/06/27 13:17:57;;;;;;;3.73;2.50;;;21.20;99.90;;;;;;5045696;28;20788;-74
2022/06/27 13:20:44;;;;;;;6.13;1.90;;;21.20;99.90;;;;;;5047971;28;20467;-74
2022/06/27 13:23:30;;;;;;;5.23;1.83;;;20.90;99.90;;;;;;5046719;28;20423;-74
2022/06/27 13:26:16;;;;;;;2.47;1.80;;;20.80;99.90;;;;;;5044169;28;20441;-74
2022/06/27 13:29:01;;;;;;;2.93;2.23;;;20.40;99.90;;;;;;5048864;28;20858;-75
2022/06/27 13:31:47;;;;;;;4.00;2.10;;;20.20;99.90;;;;;;5043179;28;20434;-74
2022/06/27 13:34:33;;;;;;;2.87;2.23;;;19.90;99.90;;;;;;5047916;28;20411;-74
2022/06/27 13:37:20;;;;;;;3.77;2.77;;;19.80;99.90;;;;;;5042297;28;20439;-74
2022/06/27 13:40:08;;;;;;;14.20;3.80;;;19.70;99.90;;;;;;5049679;28;21182;-73
2022/06/27 13:42:54;;;;;;;4.10;2.70;;;19.90;99.90;;;;;;5046408;28;20645;-74
2022/06/27 13:45:40;;;;;;;5.90;2.63;;;20.10;99.90;;;;;;5042679;28;20441;-74
2022/06/27 13:48:26;;;;;;;3.27;2.63;;;20.30;99.90;;;;;;5045815;28;20446;-74
2022/06/27 13:51:11;;;;;;;6.20;3.90;;;20.50;99.90;;;;;;5052432;28;20586;-75
2022/06/27 13:53:58;;;;;;;4.77;2.87;;;20.50;99.90;;;;;;5050382;28;20525;-74
2022/06/27 13:56:44;;;;;;;3.97;2.40;;;20.70;99.90;;;;;;5044066;28;20591;-76
2022/06/27 13:59:30;;;;;;;3.77;3.00;;;20.90;99.90;;;;;;5049140;28;20979;-76
2022/06/27 14:02:16;;;;;;;3.60;3.10;;;21.00;99.90;;;;;;5051774;28;20561;-76
2022/06/27 14:05:02;;;;;;;5.40;2.80;;;21.30;99.90;;;;;;5051954;28;20443;-73
2022/06/27 14:07:48;;;;;;;3.17;2.80;;;21.30;99.90;;;;;;5051294;28;20455;-75
2022/06/27 14:10:54;;;;;;;3.70;2.23;;;21.30;99.90;;;;;;5054514;28;20459;-73
2022/06/27 14:13:40;;;;;;;3.07;2.77;;;21.30;99.90;;;;;;5056276;28;20971;-74
2022/06/27 14:16:27;;;;;;;3.50;2.77;;;21.50;99.90;;;;;;5047457;28;20462;-73
2022/06/27 14:19:13;;;;;;;4.00;2.23;;;21.70;99.90;;;;;;5062258;28;20426;-73
2022/06/27 14:22:01;;;;;;;3.57;2.60;;;22.00;99.90;;;;;;5062681;28;20478;-73
2022/06/27 14:24:46;;;;;;;4.30;2.87;;;22.10;99.90;;;;;;5047792;28;20951;-76
2022/06/27 14:27:34;;;;;;;3.30;3.00;;;22.10;99.90;;;;;;5047580;28;20419;-73
2022/06/27 14:30:20;;;;;;;3.20;2.90;;;22.20;99.90;;;;;;5058071;28;20510;-73
2022/06/27 14:33:06;;;;;;;3.33;2.63;;;22.40;99.90;;;;;;5056240;28;20960;-73
2022/06/27 14:35:51;;;;;;;9.23;3.30;;;22.30;99.90;;;;;;5046930;28;20440;-73
2022/06/27 14:38:38;;;;;;;7.17;3.30;;;22.40;99.90;;;;;;5052062;28;20577;-74
2022/06/27 14:41:23;;;;;;;3.70;3.10;;;22.20;99.90;;;;;;5057209;28;20529;-73